createdAt,value
2022-10-18T00:02:16.189Z,101253.59
2022-10-18T00:04:42.480Z,101259.44
2022-10-18T00:07:08.726Z,101250.03
2022-10-18T00:09:34.996Z,101257.50
2022-10-18T00:12:01.260Z,101260.00
2022-10-18T00:14:27.517Z,101268.72
2022-10-18T00:16:53.771Z,101267.00
2022-10-18T00:19:20.019Z,101276.50
2022-10-18T00:21:46.278Z,101271.47
2022-10-18T00:24:12.537Z,101271.34
2022-10-18T00:26:38.818Z,101273.09
2022-10-18T00:29:05.072Z,101271.34
2022-10-18T00:31:31.338Z,101270.38
2022-10-18T00:33:57.605Z,101269.63
2022-10-18T00:36:23.872Z,101275.78
2022-10-18T00:38:50.167Z,101272.44
2022-10-18T00:41:16.583Z,101270.94
2022-10-18T00:43:42.843Z,101268.38
2022-10-18T00:46:09.099Z,101259.91
2022-10-18T00:48:35.464Z,101265.44
2022-10-18T00:51:01.727Z,101260.47
2022-10-18T00:53:27.985Z,101261.69
2022-10-18T00:55:54.230Z,101262.56
2022-10-18T00:58:20.500Z,101258.69
2022-10-18T01:00:46.764Z,101263.00
2022-10-18T01:03:13.015Z,101257.09
2022-10-18T01:05:39.302Z,101265.84
2022-10-18T01:08:05.581Z,101256.31
2022-10-18T01:10:31.887Z,101255.78
2022-10-18T01:12:58.146Z,101256.22
2022-10-18T01:15:24.407Z,101263.38
2022-10-18T01:17:50.840Z,101262.41
2022-10-18T01:20:17.103Z,101257.75
2022-10-18T01:22:43.363Z,101264.25
2022-10-18T01:25:09.622Z,101261.22
2022-10-18T01:27:36.166Z,101261.34
2022-10-18T01:30:02.472Z,101257.13
2022-10-18T01:32:28.743Z,101263.28
2022-10-18T01:34:55.006Z,101259.72
2022-10-18T01:37:21.340Z,101263.06
2022-10-18T01:39:47.914Z,101251.72
2022-10-18T01:42:14.187Z,101258.94
2022-10-18T01:44:40.446Z,101257.00
2022-10-18T01:47:06.699Z,101261.13
2022-10-18T01:49:33.376Z,101275.59
2022-10-18T01:51:59.704Z,101273.22
2022-10-18T01:54:25.986Z,101275.81
2022-10-18T01:56:52.234Z,101276.88
2022-10-18T01:59:18.516Z,101270.63
2022-10-18T02:01:44.789Z,101263.28
2022-10-18T02:04:11.035Z,101266.09
2022-10-18T02:06:37.299Z,101276.69
2022-10-18T02:09:03.572Z,101271.19
2022-10-18T02:11:29.821Z,101269.44
2022-10-18T02:13:56.098Z,101266.31
2022-10-18T02:16:22.357Z,101266.09
2022-10-18T02:18:48.635Z,101262.44
2022-10-18T02:21:14.891Z,101265.03
2022-10-18T02:23:41.147Z,101265.78
2022-10-18T02:26:07.405Z,101264.97
2022-10-18T02:28:33.677Z,101267.94
2022-10-18T02:30:59.959Z,101269.09
2022-10-18T02:33:26.219Z,101267.25
2022-10-18T02:35:52.503Z,101266.28
2022-10-18T02:38:18.737Z,101274.28
2022-10-18T02:40:45.022Z,101271.03
2022-10-18T02:43:11.303Z,101277.28
2022-10-18T02:45:37.565Z,101270.50
2022-10-18T02:48:03.826Z,101272.09
2022-10-18T02:50:30.066Z,101266.06
2022-10-18T02:52:56.312Z,101270.88
2022-10-18T02:55:22.597Z,101277.47
2022-10-18T02:57:48.884Z,101272.00
2022-10-18T03:00:15.153Z,101279.69
2022-10-18T03:02:41.401Z,101285.34
2022-10-18T03:05:07.672Z,101277.03
2022-10-18T03:07:34.195Z,101275.97
2022-10-18T03:10:00.598Z,101277.72
2022-10-18T03:12:26.847Z,101269.50
2022-10-18T03:14:53.129Z,101282.66
2022-10-18T03:17:19.393Z,101281.59
2022-10-18T03:19:45.685Z,101284.41
2022-10-18T03:22:11.950Z,101282.88
2022-10-18T03:24:38.216Z,101277.25
2022-10-18T03:27:04.478Z,101275.09
2022-10-18T03:29:30.778Z,101274.25
2022-10-18T03:31:57.030Z,101279.88
2022-10-18T03:34:23.309Z,101275.19
2022-10-18T03:36:49.643Z,101280.41
2022-10-18T03:39:16.033Z,101293.53
2022-10-18T03:41:42.314Z,101286.16
2022-10-18T03:44:08.568Z,101293.69
2022-10-18T03:46:34.841Z,101289.94
2022-10-18T03:49:01.130Z,101273.56
2022-10-18T03:51:27.432Z,101284.59
2022-10-18T03:53:53.688Z,101276.28
2022-10-18T03:56:19.968Z,101280.41
2022-10-18T03:58:46.235Z,101279.66
2022-10-18T04:01:12.597Z,101270.91
2022-10-18T04:03:38.898Z,101280.72
2022-10-18T04:06:05.220Z,101272.31
2022-10-18T04:08:31.474Z,101273.38
2022-10-18T04:10:57.774Z,101278.78
2022-10-18T04:13:24.030Z,101274.69
2022-10-18T04:15:50.311Z,101276.19
2022-10-18T04:18:16.570Z,101273.81
2022-10-18T04:20:42.825Z,101282.69
2022-10-18T04:23:09.089Z,101279.44
2022-10-18T04:25:35.371Z,101282.41
2022-10-18T04:28:01.683Z,101287.59
2022-10-18T04:30:27.936Z,101273.97
2022-10-18T04:32:54.190Z,101276.56
2022-10-18T04:35:24.323Z,101275.41
2022-10-18T04:37:50.858Z,101276.34
2022-10-18T04:40:17.125Z,101269.00
2022-10-18T04:42:43.376Z,101276.88
2022-10-18T04:45:09.631Z,101286.41
2022-10-18T04:47:35.891Z,101283.59
2022-10-18T04:50:02.148Z,101287.16
2022-10-18T04:52:28.410Z,101287.78
2022-10-18T04:54:54.667Z,101294.16
2022-10-18T04:57:20.937Z,101297.19
2022-10-18T04:59:47.212Z,101295.34
2022-10-18T05:02:13.480Z,101298.81
2022-10-18T05:04:39.739Z,101289.00
2022-10-18T05:07:06.585Z,101286.16
2022-10-18T05:09:32.858Z,101289.00
2022-10-18T05:11:59.156Z,101280.91
2022-10-18T05:14:25.410Z,101277.53
2022-10-18T05:16:51.669Z,101269.34
2022-10-18T05:19:17.986Z,101267.16
2022-10-18T05:21:44.249Z,101270.19
2022-10-18T05:24:10.498Z,101275.28
2022-10-18T05:26:36.804Z,101272.34
2022-10-18T05:29:03.115Z,101277.88
2022-10-18T05:31:29.459Z,101275.19
2022-10-18T05:33:55.744Z,101274.09
2022-10-18T05:36:22.032Z,101271.38
2022-10-18T05:38:48.360Z,101271.06
2022-10-18T05:41:14.646Z,101262.84
2022-10-18T05:43:40.955Z,101271.69
2022-10-18T05:46:13.493Z,101274.53
2022-10-18T05:48:41.333Z,101264.47
2022-10-18T05:51:07.616Z,101259.69
2022-10-18T05:53:37.999Z,101263.06
2022-10-18T05:56:04.664Z,101255.81
2022-10-18T05:58:30.927Z,101248.78
2022-10-18T06:00:57.197Z,101254.81
2022-10-18T06:03:23.443Z,101242.97
2022-10-18T06:05:49.856Z,101233.22
2022-10-18T06:08:16.122Z,101221.69
2022-10-18T06:10:42.399Z,101218.44
2022-10-18T06:13:08.654Z,101216.94
2022-10-18T06:15:34.963Z,101223.06
2022-10-18T06:18:01.206Z,101230.97
2022-10-18T06:20:27.496Z,101240.88
2022-10-18T06:22:53.781Z,101232.66
2022-10-18T06:25:20.030Z,101237.84
2022-10-18T06:27:46.335Z,101236.22
2022-10-18T06:30:12.672Z,101236.88
2022-10-18T06:32:38.914Z,101237.22
2022-10-18T06:35:05.163Z,101217.56
2022-10-18T06:37:31.704Z,101213.00
2022-10-18T06:39:58.231Z,101212.06
2022-10-18T06:42:24.491Z,101225.88
2022-10-18T06:44:50.759Z,101242.38
2022-10-18T06:47:17.047Z,101246.81
2022-10-18T06:49:43.319Z,101246.81
2022-10-18T06:52:09.581Z,101246.06
2022-10-18T06:54:35.955Z,101247.03
2022-10-18T06:57:02.671Z,101249.41
2022-10-18T06:59:31.190Z,101248.97
2022-10-18T07:01:57.928Z,101253.28
2022-10-18T07:04:24.237Z,101239.66
2022-10-18T07:06:50.486Z,101241.34
2022-10-18T07:09:16.765Z,101241.75
2022-10-18T07:11:43.013Z,101237.09
2022-10-18T07:14:12.537Z,101231.69
2022-10-18T07:16:41.863Z,101228.34
2022-10-18T07:19:08.225Z,101239.06
2022-10-18T07:21:34.467Z,101232.06
2022-10-18T07:24:00.741Z,101247.78
2022-10-18T07:26:27.273Z,101246.47
2022-10-18T07:28:55.081Z,101237.78
2022-10-18T07:31:21.416Z,101251.59
2022-10-18T07:33:47.691Z,101246.19
2022-10-18T07:36:13.971Z,101243.56
2022-10-18T07:38:40.237Z,101244.88
2022-10-18T07:41:06.866Z,101241.25
2022-10-18T07:43:33.119Z,101236.34
2022-10-18T07:45:59.401Z,101239.16
2022-10-18T07:48:25.653Z,101242.34
2022-10-18T07:50:51.911Z,101236.91
2022-10-18T07:53:18.163Z,101236.34
2022-10-18T07:55:44.720Z,101234.63
2022-10-18T07:58:10.981Z,101240.72
2022-10-18T08:00:37.231Z,101239.53
2022-10-18T08:03:03.496Z,101235.00
2022-10-18T08:05:29.905Z,101236.97
2022-10-18T08:07:56.262Z,101225.22
2022-10-18T08:10:22.518Z,101232.31
2022-10-18T08:12:48.818Z,101236.84
2022-10-18T08:15:15.077Z,101230.84
2022-10-18T08:17:43.441Z,101229.78
2022-10-18T08:20:12.255Z,101233.56
2022-10-18T08:22:45.375Z,101241.22
2022-10-18T08:25:11.636Z,101231.25
2022-10-18T08:27:37.892Z,101218.84
2022-10-18T08:30:04.147Z,101209.25
2022-10-18T08:32:30.773Z,101201.78
2022-10-18T08:34:57.202Z,101195.91
2022-10-18T08:37:23.463Z,101186.53
2022-10-18T08:39:49.710Z,101186.91
2022-10-18T08:42:15.980Z,101181.09
2022-10-18T08:44:42.224Z,101172.13
2022-10-18T08:47:08.506Z,101159.81
2022-10-18T08:49:34.850Z,101169.69
2022-10-18T08:52:01.108Z,101168.94
2022-10-18T08:54:27.398Z,101168.09
2022-10-18T08:56:53.651Z,101161.81
2022-10-18T08:59:23.286Z,101168.31
2022-10-18T09:01:51.722Z,101167.94
2022-10-18T09:04:17.975Z,101174.00
2022-10-18T09:06:44.549Z,101183.22
2022-10-18T09:09:10.809Z,101174.84
2022-10-18T09:11:37.060Z,101162.78
2022-10-18T09:14:03.371Z,101158.13
2022-10-18T09:16:29.627Z,101159.22
2022-10-18T09:18:57.259Z,101155.66
2022-10-18T09:21:23.519Z,101143.84
2022-10-18T09:23:49.820Z,101140.13
2022-10-18T09:26:16.147Z,101143.19
2022-10-18T09:28:42.469Z,101138.91
2022-10-18T09:31:08.783Z,101135.22
2022-10-18T09:33:35.069Z,101129.66
2022-10-18T09:36:01.349Z,101113.28
2022-10-18T09:38:27.666Z,101129.09
2022-10-18T09:40:53.920Z,101114.31
2022-10-18T09:43:20.199Z,101115.75
2022-10-18T09:45:46.467Z,101115.63
2022-10-18T09:48:12.756Z,101108.88
2022-10-18T09:50:39.060Z,101113.63
2022-10-18T09:53:06.393Z,101106.25
2022-10-18T09:55:32.660Z,101113.97
2022-10-18T09:57:58.940Z,101102.28
2022-10-18T10:00:25.200Z,101097.41
2022-10-18T10:02:51.494Z,101093.69
2022-10-18T10:05:17.798Z,101095.91
2022-10-18T10:07:44.070Z,101086.81
2022-10-18T10:10:10.341Z,101085.28
2022-10-18T10:12:36.630Z,101076.81
2022-10-18T10:15:02.892Z,101079.75
2022-10-18T10:17:29.712Z,101082.78
2022-10-18T10:19:56.723Z,101070.34
2022-10-18T10:22:22.986Z,101075.91
2022-10-18T10:24:49.242Z,101081.97
2022-10-18T10:27:15.611Z,101071.91
2022-10-18T10:29:44.813Z,101075.28
2022-10-18T10:32:11.347Z,101072.47
2022-10-18T10:34:39.833Z,101067.78
2022-10-18T10:37:08.652Z,101078.28
2022-10-18T10:39:34.901Z,101107.63
2022-10-18T10:42:01.233Z,101103.53
2022-10-18T10:44:27.487Z,101138.41
2022-10-18T10:46:54.723Z,101129.00
2022-10-18T10:49:39.664Z,101154.66
2022-10-18T10:52:08.876Z,101159.22
2022-10-18T10:54:41.812Z,101188.59
2022-10-18T10:57:12.416Z,101195.75
2022-10-18T10:59:38.748Z,101178.91
2022-10-18T11:02:05.025Z,101191.38
2022-10-18T11:04:31.312Z,101182.63
2022-10-18T11:06:57.931Z,101188.88
2022-10-18T11:09:24.192Z,101184.19
2022-10-18T11:11:50.525Z,101174.72
2022-10-18T11:14:32.084Z,101183.44
2022-10-18T11:16:58.362Z,101167.72
2022-10-18T11:19:26.406Z,101167.00
2022-10-18T11:21:54.659Z,101181.41
2022-10-18T11:24:20.917Z,101178.44
2022-10-18T11:26:50.019Z,101187.56
2022-10-18T11:29:19.826Z,101185.31
2022-10-18T11:31:46.098Z,101182.97
2022-10-18T11:34:12.348Z,101188.50
2022-10-18T11:36:45.375Z,101189.84
2022-10-18T11:39:22.778Z,101195.53
2022-10-18T11:41:49.193Z,101214.72
2022-10-18T11:44:15.464Z,101189.81
2022-10-18T11:46:41.739Z,101196.69
2022-10-18T11:49:08.008Z,101203.63
2022-10-18T11:51:50.289Z,101193.50
2022-10-18T11:54:20.756Z,101192.06
2022-10-18T11:56:47.007Z,101203.22
2022-10-18T11:59:13.305Z,101207.56
2022-10-18T12:01:39.571Z,101217.69
2022-10-18T12:04:05.879Z,101213.09
2022-10-18T12:06:32.126Z,101219.88
2022-10-18T12:08:59.490Z,101216.94
2022-10-18T12:11:25.770Z,101219.66
2022-10-18T12:13:52.070Z,101215.47
2022-10-18T12:16:18.331Z,101217.09
2022-10-18T12:18:44.616Z,101223.72
2022-10-18T12:21:10.932Z,101217.09
2022-10-18T12:23:37.272Z,101221.00
2022-10-18T12:26:03.550Z,101221.88
2022-10-18T12:28:29.892Z,101223.59
2022-10-18T12:30:56.206Z,101231.63
2022-10-18T12:33:28.385Z,101240.13
2022-10-18T12:35:55.181Z,101240.88
2022-10-18T12:38:21.472Z,101239.38
2022-10-18T12:40:48.063Z,101245.66
2022-10-18T12:43:14.371Z,101243.31
2022-10-18T12:45:40.620Z,101237.63
2022-10-18T12:48:06.899Z,101228.91
2022-10-18T12:50:34.673Z,101225.84
2022-10-18T12:53:00.921Z,101212.66
2022-10-18T12:55:27.274Z,101223.50
2022-10-18T12:57:53.565Z,101224.84
2022-10-18T13:00:19.833Z,101230.25
2022-10-18T13:02:46.082Z,101232.72
2022-10-18T13:05:21.290Z,101248.34
2022-10-18T13:07:58.599Z,101243.88
2022-10-18T13:10:24.903Z,101249.94
2022-10-18T13:12:51.186Z,101260.56
2022-10-18T13:15:26.993Z,101257.50
2022-10-18T13:17:54.023Z,101245.03
2022-10-18T13:20:25.993Z,101245.66
2022-10-18T13:22:52.947Z,101262.91
2022-10-18T13:25:19.211Z,101256.84
2022-10-18T13:27:45.862Z,101260.31
2022-10-18T13:30:12.330Z,101252.66
2022-10-18T13:32:38.575Z,101262.75
2022-10-18T13:35:04.847Z,101257.09
2022-10-18T13:37:31.145Z,101259.66
2022-10-18T13:39:57.426Z,101259.53
2022-10-18T13:42:23.684Z,101257.69
2022-10-18T13:44:49.997Z,101259.44
2022-10-18T13:47:16.295Z,101260.28
2022-10-18T13:49:42.542Z,101257.31
2022-10-18T13:52:08.822Z,101254.13
2022-10-18T13:54:35.084Z,101247.50
2022-10-18T13:57:01.414Z,101245.72
2022-10-18T13:59:27.705Z,101249.78
2022-10-18T14:01:54.058Z,101250.66
2022-10-18T14:04:20.369Z,101243.00
2022-10-18T14:06:46.637Z,101244.50
2022-10-18T14:09:25.750Z,101245.28
2022-10-18T14:11:59.716Z,101249.44
2022-10-18T14:14:26.594Z,101234.38
2022-10-18T14:16:52.866Z,101232.75
2022-10-18T14:19:19.127Z,101224.97
2022-10-18T14:21:45.392Z,101226.31
2022-10-18T14:24:11.666Z,101232.34
2022-10-18T14:29:09.158Z,101230.78
2022-10-18T14:31:35.529Z,101237.56
2022-10-18T14:34:01.863Z,101231.66
2022-10-18T14:36:28.193Z,101239.78
2022-10-18T14:38:54.460Z,101239.19
2022-10-18T14:41:20.723Z,101249.50
2022-10-18T14:43:48.228Z,101248.69
2022-10-18T14:46:14.503Z,101259.47
2022-10-18T14:48:40.958Z,101276.09
2022-10-18T14:51:07.219Z,101272.63
2022-10-18T14:53:35.828Z,101276.31
2022-10-18T14:56:04.022Z,101278.91
2022-10-18T14:58:30.300Z,101279.03
2022-10-18T15:00:56.660Z,101279.66
2022-10-18T15:03:23.024Z,101283.47
2022-10-18T15:05:49.283Z,101279.16
2022-10-18T15:08:15.546Z,101274.47
2022-10-18T15:10:41.798Z,101268.31
2022-10-18T15:13:10.481Z,101267.69
2022-10-18T15:15:37.300Z,101266.47
2022-10-18T15:18:05.165Z,101269.41
2022-10-18T15:20:31.860Z,101275.47
2022-10-18T15:22:58.119Z,101264.00
2022-10-18T15:25:27.938Z,101269.41
2022-10-18T15:27:57.710Z,101268.44
2022-10-18T15:30:24.497Z,101268.81
2022-10-18T15:32:50.764Z,101266.47
2022-10-18T15:35:18.503Z,101271.16
2022-10-18T15:37:47.305Z,101267.06
2022-10-18T15:40:13.778Z,101274.97
2022-10-18T15:42:40.075Z,101275.09
2022-10-18T15:45:06.344Z,101275.03
2022-10-18T15:47:32.897Z,101278.75
2022-10-18T15:49:59.365Z,101274.03
2022-10-18T15:52:25.632Z,101284.63
2022-10-18T15:54:51.903Z,101291.59
2022-10-18T15:57:18.183Z,101290.00
2022-10-18T15:59:44.448Z,101287.56
2022-10-18T16:02:10.712Z,101299.34
2022-10-18T16:04:36.972Z,101300.56
2022-10-18T16:07:03.347Z,101304.28
2022-10-18T16:09:29.597Z,101296.19
2022-10-18T16:11:57.408Z,101300.34
2022-10-18T16:14:23.763Z,101305.25
2022-10-18T16:16:50.016Z,101305.75
2022-10-18T16:19:18.559Z,101310.06
2022-10-18T16:21:44.813Z,101317.09
2022-10-18T16:24:11.064Z,101313.41
2022-10-18T16:26:37.340Z,101319.41
2022-10-18T16:29:03.657Z,101322.34
2022-10-18T16:31:30.041Z,101320.03
2022-10-18T16:33:56.321Z,101319.50
2022-10-18T16:36:22.616Z,101325.31
2022-10-18T16:38:48.904Z,101322.50
2022-10-18T16:41:15.811Z,101328.56
2022-10-18T16:43:42.131Z,101334.72
2022-10-18T16:46:08.444Z,101338.50
2022-10-18T16:48:34.789Z,101328.66
2022-10-18T16:51:01.052Z,101333.22
2022-10-18T16:53:27.894Z,101335.06
2022-10-18T16:55:54.456Z,101331.38
2022-10-18T16:58:20.853Z,101332.34
2022-10-18T17:00:47.192Z,101329.50
2022-10-18T17:03:13.447Z,101334.06
2022-10-18T17:05:39.728Z,101333.06
2022-10-18T17:08:05.971Z,101335.78
2022-10-18T17:10:32.254Z,101336.78
2022-10-18T17:12:58.572Z,101341.19
2022-10-18T17:15:24.831Z,101339.47
2022-10-18T17:17:51.127Z,101347.97
2022-10-18T17:20:17.454Z,101339.94
2022-10-18T17:22:43.715Z,101346.25
2022-10-18T17:25:09.975Z,101344.88
2022-10-18T17:27:36.256Z,101349.53
2022-10-18T17:30:02.498Z,101351.72
2022-10-18T17:32:28.796Z,101352.47
2022-10-18T17:34:55.043Z,101345.97
2022-10-18T17:37:21.295Z,101353.81
2022-10-18T17:39:47.591Z,101357.13
2022-10-18T17:42:13.854Z,101345.97
2022-10-18T17:44:40.116Z,101340.69
2022-10-18T17:47:06.405Z,101345.13
2022-10-18T17:49:32.686Z,101342.25
2022-10-18T17:52:01.158Z,101343.09
2022-10-18T17:54:30.732Z,101337.03
2022-10-18T17:56:57.003Z,101346.75
2022-10-18T17:59:23.289Z,101344.72
2022-10-18T18:01:49.559Z,101341.88
2022-10-18T18:04:16.976Z,101343.50
2022-10-18T18:06:45.267Z,101347.09
2022-10-18T18:09:11.510Z,101345.16
2022-10-18T18:11:37.974Z,101346.78
2022-10-18T18:14:08.813Z,101347.19
2022-10-18T18:16:35.356Z,101346.94
2022-10-18T18:19:04.022Z,101344.25
2022-10-18T18:21:31.368Z,101342.19
2022-10-18T18:23:57.615Z,101345.84
2022-10-18T18:26:23.915Z,101344.88
2022-10-18T18:28:50.328Z,101344.38
2022-10-18T18:31:16.687Z,101339.31
2022-10-18T18:33:42.951Z,101350.00
2022-10-18T18:36:09.265Z,101348.69
2022-10-18T18:38:35.511Z,101352.25
2022-10-18T18:41:01.768Z,101358.97
2022-10-18T18:43:28.074Z,101350.50
2022-10-18T18:45:54.402Z,101358.41
2022-10-18T18:48:20.816Z,101350.16
2022-10-18T18:50:51.750Z,101352.69
2022-10-18T18:53:18.003Z,101351.50
2022-10-18T18:55:44.303Z,101350.22
2022-10-18T18:58:10.575Z,101349.13
2022-10-18T19:00:40.393Z,101343.03
2022-10-18T19:03:10.112Z,101342.75
2022-10-18T19:05:36.507Z,101344.31
2022-10-18T19:08:02.750Z,101345.47
2022-10-18T19:10:29.007Z,101341.78
2022-10-18T19:12:55.258Z,101343.31
2022-10-18T19:15:21.507Z,101345.78
2022-10-18T19:17:47.792Z,101350.88
2022-10-18T19:20:15.184Z,101351.97
2022-10-18T19:22:41.473Z,101353.69
2022-10-18T19:25:07.898Z,101360.59
2022-10-18T19:27:34.409Z,101358.13
2022-10-18T19:30:01.014Z,101359.44
2022-10-18T19:34:58.458Z,101356.81
2022-10-18T19:37:24.716Z,101366.59
2022-10-18T19:39:50.995Z,101363.00
2022-10-18T19:42:20.513Z,101367.03
2022-10-18T19:44:50.492Z,101366.91
2022-10-18T19:47:16.747Z,101365.50
2022-10-18T19:49:43.125Z,101364.13
2022-10-18T19:52:09.378Z,101364.56
2022-10-18T19:54:35.702Z,101369.03
2022-10-18T19:57:01.947Z,101374.53
2022-10-18T19:59:28.239Z,101374.00
2022-10-18T20:01:54.571Z,101361.78
2022-10-18T20:04:20.828Z,101360.16
2022-10-18T20:06:47.712Z,101362.22
2022-10-18T20:09:17.676Z,101374.31
2022-10-18T20:11:46.765Z,101379.91
2022-10-18T20:14:13.030Z,101380.31
2022-10-18T20:16:39.351Z,101380.09
2022-10-18T20:19:05.708Z,101379.25
2022-10-18T20:21:35.399Z,101369.88
2022-10-18T20:24:01.656Z,101368.25
2022-10-18T20:26:27.918Z,101368.41
2022-10-18T20:28:58.060Z,101364.50
2022-10-18T20:31:24.567Z,101367.69
2022-10-18T20:33:50.817Z,101370.66
2022-10-18T20:36:17.072Z,101361.34
2022-10-18T20:38:43.332Z,101366.38
2022-10-18T20:41:09.575Z,101367.34
2022-10-18T20:43:35.846Z,101373.81
2022-10-18T20:46:02.101Z,101376.97
2022-10-18T20:48:28.351Z,101368.94
2022-10-18T20:50:54.600Z,101379.69
2022-10-18T20:53:22.204Z,101374.53
2022-10-18T20:55:48.496Z,101372.38
2022-10-18T20:58:14.743Z,101381.31
2022-10-18T21:00:40.996Z,101389.06
2022-10-18T21:03:07.406Z,101386.28
2022-10-18T21:05:33.720Z,101381.78
2022-10-18T21:07:59.990Z,101383.53
2022-10-18T21:10:26.242Z,101381.69
2022-10-18T21:12:52.499Z,101370.69
2022-10-18T21:15:18.750Z,101376.75
2022-10-18T21:17:44.998Z,101374.28
2022-10-18T21:20:11.264Z,101376.41
2022-10-18T21:22:37.525Z,101376.06
2022-10-18T21:25:03.771Z,101375.44
2022-10-18T21:27:30.058Z,101364.34
2022-10-18T21:29:56.302Z,101369.75
2022-10-18T21:32:22.546Z,101370.28
2022-10-18T21:34:48.791Z,101368.13
2022-10-18T21:37:15.068Z,101362.44
2022-10-18T21:39:42.230Z,101370.13
2022-10-18T21:42:08.733Z,101370.78
2022-10-18T21:44:35.001Z,101363.34
2022-10-18T21:47:01.266Z,101361.50
2022-10-18T21:49:29.040Z,101371.09
2022-10-18T21:51:55.293Z,101378.97
2022-10-18T21:54:21.542Z,101384.47
2022-10-18T21:56:47.812Z,101388.16
2022-10-18T21:59:14.084Z,101380.00
2022-10-18T22:01:40.339Z,101372.91
2022-10-18T22:04:06.632Z,101382.09
2022-10-18T22:09:04.829Z,101374.53
2022-10-18T22:11:31.070Z,101374.34
2022-10-18T22:13:57.388Z,101381.41
2022-10-18T22:16:23.659Z,101369.72
2022-10-18T22:18:49.924Z,101363.53
2022-10-18T22:21:16.263Z,101358.88
2022-10-18T22:23:42.532Z,101355.31
2022-10-18T22:26:08.865Z,101356.03
2022-10-18T22:28:35.153Z,101354.97
2022-10-18T22:31:01.451Z,101358.84
2022-10-18T22:33:27.748Z,101364.03
2022-10-18T22:35:54.049Z,101360.16
2022-10-18T22:38:20.297Z,101355.84
2022-10-18T22:40:46.647Z,101358.00
2022-10-18T22:43:12.907Z,101363.41
2022-10-18T22:45:39.187Z,101363.09
2022-10-18T22:48:05.442Z,101363.00
2022-10-18T22:50:31.719Z,101365.47
2022-10-18T22:52:57.980Z,101357.78
2022-10-18T22:55:24.245Z,101354.34
2022-10-18T22:57:50.496Z,101353.66
2022-10-18T23:00:16.749Z,101350.19
2022-10-18T23:02:43.040Z,101350.59
2022-10-18T23:05:09.299Z,101363.13
2022-10-18T23:07:35.622Z,101356.00
2022-10-18T23:10:01.884Z,101357.44
2022-10-18T23:12:28.156Z,101355.88
2022-10-18T23:14:54.418Z,101351.72
2022-10-18T23:17:20.680Z,101353.34
2022-10-18T23:19:46.921Z,101363.44
2022-10-18T23:22:14.883Z,101364.00
2022-10-18T23:24:41.062Z,101368.72
2022-10-18T23:27:07.321Z,101368.44
2022-10-18T23:29:33.576Z,101369.63
2022-10-18T23:31:59.878Z,101372.44
2022-10-18T23:34:26.129Z,101376.06
2022-10-18T23:36:52.416Z,101374.06
2022-10-18T23:39:18.673Z,101371.75
2022-10-18T23:41:44.928Z,101366.72
2022-10-18T23:44:11.433Z,101372.88
2022-10-18T23:46:37.683Z,101376.50
2022-10-18T23:49:03.981Z,101378.88
2022-10-18T23:51:30.387Z,101367.22
2022-10-18T23:53:56.655Z,101375.03
2022-10-18T23:56:22.906Z,101366.25
2022-10-18T23:58:49.349Z,101362.41
